sensor_id;sensor_type;location;lat;lon;timestamp;P1;durP1;ratioP1;P2;durP2;ratioP2
14066;SDS011;7108;42.684;23.350;2023-01-15T00:01:19;231.20;;;73.57;;
14066;SDS011;7108;42.684;23.350;2023-01-15T00:03:44;229.68;;;74.57;;
14066;SDS011;7108;42.684;23.350;2023-01-15T00:06:10;224.23;;;73.53;;
14066;SDS011;7108;42.684;23.350;2023-01-15T00:08:35;214.80;;;73.70;;
14066;SDS011;7108;42.684;23.350;2023-01-15T00:11:04;203.37;;;73.00;;
14066;SDS011;7108;42.684;23.350;2023-01-15T00:13:30;223.13;;;73.78;;
14066;SDS011;7108;42.684;23.350;2023-01-15T00:16:05;201.13;;;70.20;;
14066;SDS011;7108;42.684;23.350;2023-01-15T00:18:41;244.55;;;77.80;;
14066;SDS011;7108;42.684;23.350;2023-01-15T00:21:08;223.40;;;73.87;;
14066;SDS011;7108;42.684;23.350;2023-01-15T00:23:36;228.63;;;75.25;;
14066;SDS011;7108;42.684;23.350;2023-01-15T00:26:21;209.18;;;71.55;;
14066;SDS011;7108;42.684;23.350;2023-01-15T00:29:09;226.25;;;77.95;;
14066;SDS011;7108;42.684;23.350;2023-01-15T00:31:34;239.13;;;75.37;;
14066;SDS011;7108;42.684;23.350;2023-01-15T00:34:00;204.97;;;71.70;;
14066;SDS011;7108;42.684;23.350;2023-01-15T00:36:26;218.18;;;74.32;;
14066;SDS011;7108;42.684;23.350;2023-01-15T00:38:52;215.93;;;75.20;;
14066;SDS011;7108;42.684;23.350;2023-01-15T00:41:20;214.73;;;72.97;;
14066;SDS011;7108;42.684;23.350;2023-01-15T00:43:47;210.07;;;75.07;;
14066;SDS011;7108;42.684;23.350;2023-01-15T00:46:12;217.63;;;73.97;;
14066;SDS011;7108;42.684;23.350;2023-01-15T00:48:38;236.07;;;77.97;;
14066;SDS011;7108;42.684;23.350;2023-01-15T00:51:04;235.43;;;77.28;;
14066;SDS011;7108;42.684;23.350;2023-01-15T00:53:30;237.83;;;75.57;;
14066;SDS011;7108;42.684;23.350;2023-01-15T00:55:57;203.05;;;74.57;;
14066;SDS011;7108;42.684;23.350;2023-01-15T00:58:22;205.53;;;73.13;;
14066;SDS011;7108;42.684;23.350;2023-01-15T01:00:54;231.70;;;77.20;;
14066;SDS011;7108;42.684;23.350;2023-01-15T01:03:21;200.60;;;72.80;;
14066;SDS011;7108;42.684;23.350;2023-01-15T01:05:47;236.65;;;75.35;;
14066;SDS011;7108;42.684;23.350;2023-01-15T01:08:13;239.10;;;75.27;;
14066;SDS011;7108;42.684;23.350;2023-01-15T01:10:39;231.13;;;76.03;;
14066;SDS011;7108;42.684;23.350;2023-01-15T01:13:04;236.53;;;75.93;;
14066;SDS011;7108;42.684;23.350;2023-01-15T01:15:34;239.97;;;76.93;;
14066;SDS011;7108;42.684;23.350;2023-01-15T01:18:00;214.25;;;74.97;;
14066;SDS011;7108;42.684;23.350;2023-01-15T01:20:26;195.83;;;70.37;;
14066;SDS011;7108;42.684;23.350;2023-01-15T01:22:52;207.40;;;73.77;;
14066;SDS011;7108;42.684;23.350;2023-01-15T01:25:17;261.03;;;79.17;;
14066;SDS011;7108;42.684;23.350;2023-01-15T01:27:43;227.10;;;76.13;;
14066;SDS011;7108;42.684;23.350;2023-01-15T01:30:10;228.27;;;74.28;;
14066;SDS011;7108;42.684;23.350;2023-01-15T01:32:36;242.73;;;75.05;;
14066;SDS011;7108;42.684;23.350;2023-01-15T01:35:02;204.03;;;71.53;;
14066;SDS011;7108;42.684;23.350;2023-01-15T01:37:27;218.80;;;73.77;;
14066;SDS011;7108;42.684;23.350;2023-01-15T01:39:53;194.47;;;71.57;;
14066;SDS011;7108;42.684;23.350;2023-01-15T01:42:19;248.25;;;75.07;;
14066;SDS011;7108;42.684;23.350;2023-01-15T01:47:12;236.33;;;75.20;;
14066;SDS011;7108;42.684;23.350;2023-01-15T01:49:53;240.25;;;75.63;;
14066;SDS011;7108;42.684;23.350;2023-01-15T01:52:27;204.27;;;70.97;;
14066;SDS011;7108;42.684;23.350;2023-01-15T01:54:57;200.77;;;72.53;;
14066;SDS011;7108;42.684;23.350;2023-01-15T01:57:23;214.07;;;72.28;;
14066;SDS011;7108;42.684;23.350;2023-01-15T01:59:49;199.00;;;71.07;;
14066;SDS011;7108;42.684;23.350;2023-01-15T02:02:15;225.80;;;73.30;;
14066;SDS011;7108;42.684;23.350;2023-01-15T02:04:44;234.13;;;75.88;;
14066;SDS011;7108;42.684;23.350;2023-01-15T02:07:10;220.98;;;74.43;;
14066;SDS011;7108;42.684;23.350;2023-01-15T02:09:36;218.88;;;73.53;;
14066;SDS011;7108;42.684;23.350;2023-01-15T02:12:08;197.30;;;71.83;;
14066;SDS011;7108;42.684;23.350;2023-01-15T02:14:53;232.73;;;73.72;;
14066;SDS011;7108;42.684;23.350;2023-01-15T02:17:24;210.07;;;71.40;;
14066;SDS011;7108;42.684;23.350;2023-01-15T02:20:07;194.30;;;68.20;;
14066;SDS011;7108;42.684;23.350;2023-01-15T02:23:09;203.25;;;71.72;;
14066;SDS011;7108;42.684;23.350;2023-01-15T02:25:57;199.07;;;71.63;;
14066;SDS011;7108;42.684;23.350;2023-01-15T02:28:45;230.60;;;74.63;;
14066;SDS011;7108;42.684;23.350;2023-01-15T02:31:18;220.23;;;72.80;;
14066;SDS011;7108;42.684;23.350;2023-01-15T02:36:23;192.85;;;71.13;;
14066;SDS011;7108;42.684;23.350;2023-01-15T02:38:53;199.60;;;73.20;;
14066;SDS011;7108;42.684;23.350;2023-01-15T02:41:24;210.23;;;71.43;;
14066;SDS011;7108;42.684;23.350;2023-01-15T02:43:53;198.45;;;72.20;;
14066;SDS011;7108;42.684;23.350;2023-01-15T02:46:22;207.25;;;73.35;;
14066;SDS011;7108;42.684;23.350;2023-01-15T02:48:57;196.88;;;71.72;;
14066;SDS011;7108;42.684;23.350;2023-01-15T02:51:26;222.07;;;73.15;;
14066;SDS011;7108;42.684;23.350;2023-01-15T02:53:58;191.18;;;70.93;;
14066;SDS011;7108;42.684;23.350;2023-01-15T02:56:29;213.07;;;72.00;;
14066;SDS011;7108;42.684;23.350;2023-01-15T02:58:58;196.68;;;72.13;;
14066;SDS011;7108;42.684;23.350;2023-01-15T03:01:32;199.95;;;71.07;;
14066;SDS011;7108;42.684;23.350;2023-01-15T03:04:09;214.05;;;72.22;;
14066;SDS011;7108;42.684;23.350;2023-01-15T03:06:54;221.82;;;73.32;;
14066;SDS011;7108;42.684;23.350;2023-01-15T03:09:29;211.93;;;71.32;;
14066;SDS011;7108;42.684;23.350;2023-01-15T03:14:41;213.65;;;71.45;;
14066;SDS011;7108;42.684;23.350;2023-01-15T03:17:27;213.75;;;71.55;;
14066;SDS011;7108;42.684;23.350;2023-01-15T03:22:45;191.70;;;68.88;;
14066;SDS011;7108;42.684;23.350;2023-01-15T03:25:17;211.55;;;72.03;;
14066;SDS011;7108;42.684;23.350;2023-01-15T03:27:45;207.77;;;71.28;;
14066;SDS011;7108;42.684;23.350;2023-01-15T03:30:12;225.13;;;72.80;;
14066;SDS011;7108;42.684;23.350;2023-01-15T03:32:41;206.43;;;70.95;;
14066;SDS011;7108;42.684;23.350;2023-01-15T03:35:07;226.83;;;75.17;;
14066;SDS011;7108;42.684;23.350;2023-01-15T03:38:11;210.50;;;71.53;;
14066;SDS011;7108;42.684;23.350;2023-01-15T03:40:40;223.40;;;75.22;;
14066;SDS011;7108;42.684;23.350;2023-01-15T03:43:39;208.70;;;72.55;;
14066;SDS011;7108;42.684;23.350;2023-01-15T03:51:50;230.63;;;76.25;;
14066;SDS011;7108;42.684;23.350;2023-01-15T03:54:23;233.88;;;75.15;;
14066;SDS011;7108;42.684;23.350;2023-01-15T03:57:26;223.35;;;73.32;;
14066;SDS011;7108;42.684;23.350;2023-01-15T03:59:58;190.80;;;69.15;;
14066;SDS011;7108;42.684;23.350;2023-01-15T04:02:28;208.35;;;71.30;;
14066;SDS011;7108;42.684;23.350;2023-01-15T04:04:54;202.90;;;71.93;;
14066;SDS011;7108;42.684;23.350;2023-01-15T04:07:22;210.98;;;73.28;;
14066;SDS011;7108;42.684;23.350;2023-01-15T04:09:49;230.85;;;72.40;;
14066;SDS011;7108;42.684;23.350;2023-01-15T04:12:15;238.60;;;76.83;;
14066;SDS011;7108;42.684;23.350;2023-01-15T04:14:41;230.33;;;77.57;;
14066;SDS011;7108;42.684;23.350;2023-01-15T04:17:06;230.63;;;73.10;;
14066;SDS011;7108;42.684;23.350;2023-01-15T04:19:32;214.63;;;73.67;;
14066;SDS011;7108;42.684;23.350;2023-01-15T04:21:58;205.47;;;71.73;;
14066;SDS011;7108;42.684;23.350;2023-01-15T04:24:23;216.57;;;73.13;;
14066;SDS011;7108;42.684;23.350;2023-01-15T04:26:49;232.87;;;74.50;;
14066;SDS011;7108;42.684;23.350;2023-01-15T04:29:15;241.30;;;75.17;;
14066;SDS011;7108;42.684;23.350;2023-01-15T04:31:40;238.27;;;78.10;;
14066;SDS011;7108;42.684;23.350;2023-01-15T04:34:06;233.30;;;75.83;;
14066;SDS011;7108;42.684;23.350;2023-01-15T04:36:31;207.70;;;72.93;;
14066;SDS011;7108;42.684;23.350;2023-01-15T04:38:59;203.57;;;71.95;;
14066;SDS011;7108;42.684;23.350;2023-01-15T04:41:25;221.70;;;76.50;;
14066;SDS011;7108;42.684;23.350;2023-01-15T04:44:09;221.73;;;73.68;;
14066;SDS011;7108;42.684;23.350;2023-01-15T04:46:39;254.00;;;76.87;;
14066;SDS011;7108;42.684;23.350;2023-01-15T04:49:07;221.63;;;76.93;;
14066;SDS011;7108;42.684;23.350;2023-01-15T04:51:34;235.82;;;75.68;;
14066;SDS011;7108;42.684;23.350;2023-01-15T04:54:01;209.60;;;73.57;;
14066;SDS011;7108;42.684;23.350;2023-01-15T04:56:28;212.07;;;73.57;;
14066;SDS011;7108;42.684;23.350;2023-01-15T04:58:53;196.87;;;73.13;;
14066;SDS011;7108;42.684;23.350;2023-01-15T05:01:19;245.63;;;76.90;;
14066;SDS011;7108;42.684;23.350;2023-01-15T05:03:44;238.63;;;76.13;;
14066;SDS011;7108;42.684;23.350;2023-01-15T05:06:10;238.03;;;76.00;;
14066;SDS011;7108;42.684;23.350;2023-01-15T05:08:38;221.77;;;74.80;;
14066;SDS011;7108;42.684;23.350;2023-01-15T05:11:04;223.23;;;74.10;;
14066;SDS011;7108;42.684;23.350;2023-01-15T05:13:32;234.90;;;75.10;;
14066;SDS011;7108;42.684;23.350;2023-01-15T05:18:43;221.93;;;73.15;;
14066;SDS011;7108;42.684;23.350;2023-01-15T05:21:17;223.43;;;74.65;;
14066;SDS011;7108;42.684;23.350;2023-01-15T05:23:48;235.45;;;75.65;;
14066;SDS011;7108;42.684;23.350;2023-01-15T05:26:14;222.82;;;74.43;;
14066;SDS011;7108;42.684;23.350;2023-01-15T05:28:40;231.27;;;73.57;;
14066;SDS011;7108;42.684;23.350;2023-01-15T05:31:09;234.57;;;77.70;;
14066;SDS011;7108;42.684;23.350;2023-01-15T05:33:37;241.70;;;76.15;;
14066;SDS011;7108;42.684;23.350;2023-01-15T05:36:04;206.32;;;73.72;;
14066;SDS011;7108;42.684;23.350;2023-01-15T05:38:34;257.30;;;76.63;;
14066;SDS011;7108;42.684;23.350;2023-01-15T05:41:05;206.88;;;73.28;;
14066;SDS011;7108;42.684;23.350;2023-01-15T05:44:03;204.75;;;73.30;;
14066;SDS011;7108;42.684;23.350;2023-01-15T05:46:31;224.02;;;75.82;;
14066;SDS011;7108;42.684;23.350;2023-01-15T05:49:01;194.40;;;69.57;;
14066;SDS011;7108;42.684;23.350;2023-01-15T05:51:27;239.60;;;78.07;;
14066;SDS011;7108;42.684;23.350;2023-01-15T05:53:53;200.70;;;72.37;;
14066;SDS011;7108;42.684;23.350;2023-01-15T05:56:19;251.00;;;76.95;;
14066;SDS011;7108;42.684;23.350;2023-01-15T05:58:45;260.93;;;79.33;;
14066;SDS011;7108;42.684;23.350;2023-01-15T06:01:11;263.30;;;77.95;;
14066;SDS011;7108;42.684;23.350;2023-01-15T06:03:36;286.57;;;81.43;;
14066;SDS011;7108;42.684;23.350;2023-01-15T06:06:02;269.60;;;79.13;;
14066;SDS011;7108;42.684;23.350;2023-01-15T06:08:29;275.13;;;78.63;;
14066;SDS011;7108;42.684;23.350;2023-01-15T06:10:54;245.27;;;75.20;;
14066;SDS011;7108;42.684;23.350;2023-01-15T06:13:20;283.57;;;80.93;;
14066;SDS011;7108;42.684;23.350;2023-01-15T06:15:46;301.50;;;82.13;;
14066;SDS011;7108;42.684;23.350;2023-01-15T06:18:11;312.67;;;82.20;;
14066;SDS011;7108;42.684;23.350;2023-01-15T06:20:37;305.80;;;82.67;;
14066;SDS011;7108;42.684;23.350;2023-01-15T06:23:04;280.05;;;78.70;;
14066;SDS011;7108;42.684;23.350;2023-01-15T06:25:33;265.57;;;78.97;;
14066;SDS011;7108;42.684;23.350;2023-01-15T06:28:01;334.58;;;113.93;;
14066;SDS011;7108;42.684;23.350;2023-01-15T06:30:27;254.15;;;77.57;;
14066;SDS011;7108;42.684;23.350;2023-01-15T06:32:56;246.85;;;76.05;;
14066;SDS011;7108;42.684;23.350;2023-01-15T06:35:21;254.00;;;77.23;;
14066;SDS011;7108;42.684;23.350;2023-01-15T06:37:50;295.10;;;81.13;;
14066;SDS011;7108;42.684;23.350;2023-01-15T06:40:16;257.20;;;76.68;;
14066;SDS011;7108;42.684;23.350;2023-01-15T06:42:42;280.50;;;79.13;;
14066;SDS011;7108;42.684;23.350;2023-01-15T06:45:26;265.50;;;78.38;;
14066;SDS011;7108;42.684;23.350;2023-01-15T06:48:12;270.58;;;78.20;;
14066;SDS011;7108;42.684;23.350;2023-01-15T06:50:37;309.13;;;83.03;;
14066;SDS011;7108;42.684;23.350;2023-01-15T06:53:02;239.27;;;75.17;;
14066;SDS011;7108;42.684;23.350;2023-01-15T06:55:28;282.60;;;81.57;;
14066;SDS011;7108;42.684;23.350;2023-01-15T06:57:53;284.70;;;81.87;;
14066;SDS011;7108;42.684;23.350;2023-01-15T07:00:19;266.73;;;76.63;;
14066;SDS011;7108;42.684;23.350;2023-01-15T07:02:47;281.20;;;81.17;;
14066;SDS011;7108;42.684;23.350;2023-01-15T07:05:21;219.80;;;75.63;;
14066;SDS011;7108;42.684;23.350;2023-01-15T07:07:47;221.85;;;72.72;;
14066;SDS011;7108;42.684;23.350;2023-01-15T07:10:12;235.33;;;73.43;;
14066;SDS011;7108;42.684;23.350;2023-01-15T07:12:38;239.40;;;73.07;;
14066;SDS011;7108;42.684;23.350;2023-01-15T07:15:03;215.37;;;74.03;;
14066;SDS011;7108;42.684;23.350;2023-01-15T07:17:29;231.15;;;73.32;;
14066;SDS011;7108;42.684;23.350;2023-01-15T07:19:55;258.77;;;80.97;;
14066;SDS011;7108;42.684;23.350;2023-01-15T07:22:20;295.37;;;84.83;;
14066;SDS011;7108;42.684;23.350;2023-01-15T07:24:46;275.37;;;83.90;;
14066;SDS011;7108;42.684;23.350;2023-01-15T07:27:11;304.37;;;88.50;;
14066;SDS011;7108;42.684;23.350;2023-01-15T07:29:37;281.37;;;83.03;;
14066;SDS011;7108;42.684;23.350;2023-01-15T07:32:05;295.60;;;83.23;;
14066;SDS011;7108;42.684;23.350;2023-01-15T07:34:31;285.55;;;83.40;;
14066;SDS011;7108;42.684;23.350;2023-01-15T07:36:56;273.73;;;84.03;;
14066;SDS011;7108;42.684;23.350;2023-01-15T07:39:22;262.43;;;81.10;;
14066;SDS011;7108;42.684;23.350;2023-01-15T07:41:47;319.00;;;92.40;;
14066;SDS011;7108;42.684;23.350;2023-01-15T07:44:31;263.88;;;80.63;;
14066;SDS011;7108;42.684;23.350;2023-01-15T07:50:19;237.20;;;76.65;;
14066;SDS011;7108;42.684;23.350;2023-01-15T07:52:46;295.65;;;82.72;;
14066;SDS011;7108;42.684;23.350;2023-01-15T07:55:12;298.77;;;85.63;;
14066;SDS011;7108;42.684;23.350;2023-01-15T07:57:39;292.73;;;85.43;;
14066;SDS011;7108;42.684;23.350;2023-01-15T08:00:06;260.23;;;79.70;;
14066;SDS011;7108;42.684;23.350;2023-01-15T08:02:36;303.75;;;83.13;;
14066;SDS011;7108;42.684;23.350;2023-01-15T08:05:02;255.10;;;79.90;;
14066;SDS011;7108;42.684;23.350;2023-01-15T08:07:28;312.35;;;85.32;;
14066;SDS011;7108;42.684;23.350;2023-01-15T08:09:54;269.67;;;79.77;;
14066;SDS011;7108;42.684;23.350;2023-01-15T08:12:19;289.30;;;82.87;;
14066;SDS011;7108;42.684;23.350;2023-01-15T08:15:03;257.58;;;78.57;;
14066;SDS011;7108;42.684;23.350;2023-01-15T08:17:42;303.80;;;82.90;;
14066;SDS011;7108;42.684;23.350;2023-01-15T08:20:29;293.45;;;84.35;;
14066;SDS011;7108;42.684;23.350;2023-01-15T08:22:55;258.88;;;79.80;;
14066;SDS011;7108;42.684;23.350;2023-01-15T08:25:22;281.53;;;80.37;;
14066;SDS011;7108;42.684;23.350;2023-01-15T08:27:48;289.48;;;82.90;;
14066;SDS011;7108;42.684;23.350;2023-01-15T08:30:16;295.17;;;81.72;;
14066;SDS011;7108;42.684;23.350;2023-01-15T08:32:43;252.70;;;79.03;;
14066;SDS011;7108;42.684;23.350;2023-01-15T08:35:09;264.17;;;82.15;;
14066;SDS011;7108;42.684;23.350;2023-01-15T08:37:35;294.80;;;82.77;;
14066;SDS011;7108;42.684;23.350;2023-01-15T08:40:00;248.27;;;78.70;;
14066;SDS011;7108;42.684;23.350;2023-01-15T08:42:26;253.77;;;79.67;;
14066;SDS011;7108;42.684;23.350;2023-01-15T08:44:52;246.45;;;79.82;;
14066;SDS011;7108;42.684;23.350;2023-01-15T08:47:17;254.63;;;80.77;;
14066;SDS011;7108;42.684;23.350;2023-01-15T08:49:43;239.63;;;77.10;;
14066;SDS011;7108;42.684;23.350;2023-01-15T08:52:11;246.10;;;79.47;;
14066;SDS011;7108;42.684;23.350;2023-01-15T08:54:36;260.43;;;80.73;;
14066;SDS011;7108;42.684;23.350;2023-01-15T08:57:02;226.53;;;78.73;;
14066;SDS011;7108;42.684;23.350;2023-01-15T08:59:27;225.47;;;78.20;;
14066;SDS011;7108;42.684;23.350;2023-01-15T09:01:53;212.83;;;76.87;;
14066;SDS011;7108;42.684;23.350;2023-01-15T09:04:22;222.65;;;80.50;;
14066;SDS011;7108;42.684;23.350;2023-01-15T09:06:47;250.67;;;81.67;;
14066;SDS011;7108;42.684;23.350;2023-01-15T09:09:14;250.38;;;80.32;;
14066;SDS011;7108;42.684;23.350;2023-01-15T09:11:40;290.13;;;88.07;;
14066;SDS011;7108;42.684;23.350;2023-01-15T09:14:13;260.27;;;88.10;;
14066;SDS011;7108;42.684;23.350;2023-01-15T09:16:41;254.15;;;81.47;;
14066;SDS011;7108;42.684;23.350;2023-01-15T09:19:06;240.00;;;78.37;;
14066;SDS011;7108;42.684;23.350;2023-01-15T09:21:33;245.73;;;80.63;;
14066;SDS011;7108;42.684;23.350;2023-01-15T09:23:59;225.73;;;77.93;;
14066;SDS011;7108;42.684;23.350;2023-01-15T09:28:52;217.23;;;78.75;;
14066;SDS011;7108;42.684;23.350;2023-01-15T09:31:19;283.40;;;83.50;;
14066;SDS011;7108;42.684;23.350;2023-01-15T09:33:44;241.03;;;80.77;;
14066;SDS011;7108;42.684;23.350;2023-01-15T09:36:17;229.97;;;79.77;;
14066;SDS011;7108;42.684;23.350;2023-01-15T09:38:47;246.02;;;79.85;;
14066;SDS011;7108;42.684;23.350;2023-01-15T09:41:14;246.73;;;77.88;;
14066;SDS011;7108;42.684;23.350;2023-01-15T09:47:07;256.40;;;78.90;;
14066;SDS011;7108;42.684;23.350;2023-01-15T09:57:32;241.95;;;79.63;;
14066;SDS011;7108;42.684;23.350;2023-01-15T09:59:58;229.25;;;78.80;;
14066;SDS011;7108;42.684;23.350;2023-01-15T10:05:26;272.33;;;82.82;;
14066;SDS011;7108;42.684;23.350;2023-01-15T10:10:45;249.25;;;79.72;;
14066;SDS011;7108;42.684;23.350;2023-01-15T10:16:10;274.38;;;77.50;;
14066;SDS011;7108;42.684;23.350;2023-01-15T10:18:37;284.77;;;81.25;;
14066;SDS011;7108;42.684;23.350;2023-01-15T10:24:10;230.98;;;74.93;;
14066;SDS011;7108;42.684;23.350;2023-01-15T10:26:47;251.25;;;78.95;;
14066;SDS011;7108;42.684;23.350;2023-01-15T10:38:20;211.75;;;73.32;;
14066;SDS011;7108;42.684;23.350;2023-01-15T10:40:58;209.98;;;74.15;;
14066;SDS011;7108;42.684;23.350;2023-01-15T10:43:56;211.30;;;75.00;;
14066;SDS011;7108;42.684;23.350;2023-01-15T10:46:30;227.98;;;76.38;;
14066;SDS011;7108;42.684;23.350;2023-01-15T10:49:10;216.30;;;72.18;;
14066;SDS011;7108;42.684;23.350;2023-01-15T10:51:42;261.02;;;78.60;;
14066;SDS011;7108;42.684;23.350;2023-01-15T10:54:31;247.55;;;79.38;;
14066;SDS011;7108;42.684;23.350;2023-01-15T11:00:14;254.57;;;75.20;;
14066;SDS011;7108;42.684;23.350;2023-01-15T11:02:42;249.10;;;75.03;;
14066;SDS011;7108;42.684;23.350;2023-01-15T11:05:16;230.32;;;73.75;;
14066;SDS011;7108;42.684;23.350;2023-01-15T11:07:45;250.40;;;76.40;;
14066;SDS011;7108;42.684;23.350;2023-01-15T11:10:16;238.77;;;77.28;;
14066;SDS011;7108;42.684;23.350;2023-01-15T11:12:47;225.43;;;73.20;;
14066;SDS011;7108;42.684;23.350;2023-01-15T11:15:32;238.07;;;74.93;;
14066;SDS011;7108;42.684;23.350;2023-01-15T11:18:19;253.30;;;79.00;;
14066;SDS011;7108;42.684;23.350;2023-01-15T11:21:13;232.90;;;74.13;;
14066;SDS011;7108;42.684;23.350;2023-01-15T11:23:41;248.95;;;74.38;;
14066;SDS011;7108;42.684;23.350;2023-01-15T11:26:07;246.27;;;76.82;;
14066;SDS011;7108;42.684;23.350;2023-01-15T11:28:35;249.63;;;75.70;;
14066;SDS011;7108;42.684;23.350;2023-01-15T11:31:07;250.20;;;77.43;;
14066;SDS011;7108;42.684;23.350;2023-01-15T11:33:35;252.63;;;79.07;;
14066;SDS011;7108;42.684;23.350;2023-01-15T11:36:24;236.75;;;75.00;;
14066;SDS011;7108;42.684;23.350;2023-01-15T11:38:51;214.60;;;73.10;;
14066;SDS011;7108;42.684;23.350;2023-01-15T11:41:22;237.52;;;76.78;;
14066;SDS011;7108;42.684;23.350;2023-01-15T11:44:10;231.18;;;75.03;;
14066;SDS011;7108;42.684;23.350;2023-01-15T11:46:55;215.45;;;72.38;;
14066;SDS011;7108;42.684;23.350;2023-01-15T11:49:48;255.93;;;76.13;;
14066;SDS011;7108;42.684;23.350;2023-01-15T11:52:36;252.23;;;75.07;;
14066;SDS011;7108;42.684;23.350;2023-01-15T11:55:09;235.77;;;75.57;;
14066;SDS011;7108;42.684;23.350;2023-01-15T11:57:39;259.10;;;76.07;;
14066;SDS011;7108;42.684;23.350;2023-01-15T12:00:06;229.52;;;74.90;;
14066;SDS011;7108;42.684;23.350;2023-01-15T12:02:40;252.15;;;75.63;;
14066;SDS011;7108;42.684;23.350;2023-01-15T12:05:18;243.45;;;75.60;;
14066;SDS011;7108;42.684;23.350;2023-01-15T12:08:03;207.57;;;78.50;;
14066;SDS011;7108;42.684;23.350;2023-01-15T12:14:11;238.82;;;74.35;;
14066;SDS011;7108;42.684;23.350;2023-01-15T12:16:49;234.93;;;74.53;;
14066;SDS011;7108;42.684;23.350;2023-01-15T12:22:07;218.32;;;73.32;;
14066;SDS011;7108;42.684;23.350;2023-01-15T12:32:39;246.17;;;76.20;;
14066;SDS011;7108;42.684;23.350;2023-01-15T12:37:46;249.15;;;77.13;;
14066;SDS011;7108;42.684;23.350;2023-01-15T12:40:21;214.05;;;72.75;;
14066;SDS011;7108;42.684;23.350;2023-01-15T12:42:52;203.43;;;71.25;;
14066;SDS011;7108;42.684;23.350;2023-01-15T12:45:39;250.90;;;76.40;;
14066;SDS011;7108;42.684;23.350;2023-01-15T12:48:18;228.98;;;74.60;;
14066;SDS011;7108;42.684;23.350;2023-01-15T12:51:02;210.70;;;72.35;;
14066;SDS011;7108;42.684;23.350;2023-01-15T13:01:47;250.95;;;76.70;;
14066;SDS011;7108;42.684;23.350;2023-01-15T13:07:10;252.10;;;77.10;;
14066;SDS011;7108;42.684;23.350;2023-01-15T13:09:44;241.93;;;75.45;;
14066;SDS011;7108;42.684;23.350;2023-01-15T13:12:20;215.40;;;73.53;;
14066;SDS011;7108;42.684;23.350;2023-01-15T13:14:46;244.67;;;74.77;;
14066;SDS011;7108;42.684;23.350;2023-01-15T13:36:03;247.95;;;77.45;;
14066;SDS011;7108;42.684;23.350;2023-01-15T13:38:38;289.75;;;79.65;;
14066;SDS011;7108;42.684;23.350;2023-01-15T13:41:07;248.65;;;77.07;;
14066;SDS011;7108;42.684;23.350;2023-01-15T13:43:35;254.18;;;76.95;;
14066;SDS011;7108;42.684;23.350;2023-01-15T13:46:04;284.50;;;79.85;;
14066;SDS011;7108;42.684;23.350;2023-01-15T13:48:44;268.77;;;77.55;;
14066;SDS011;7108;42.684;23.350;2023-01-15T13:51:24;284.58;;;79.35;;
14066;SDS011;7108;42.684;23.350;2023-01-15T13:53:53;257.35;;;78.15;;
14066;SDS011;7108;42.684;23.350;2023-01-15T13:56:28;253.20;;;76.07;;
14066;SDS011;7108;42.684;23.350;2023-01-15T14:06:49;293.75;;;81.65;;
14066;SDS011;7108;42.684;23.350;2023-01-15T14:11:55;290.67;;;80.32;;
14066;SDS011;7108;42.684;23.350;2023-01-15T14:35:41;269.75;;;76.13;;
14066;SDS011;7108;42.684;23.350;2023-01-15T14:38:19;262.30;;;78.05;;
14066;SDS011;7108;42.684;23.350;2023-01-15T14:40:51;266.95;;;79.32;;
14066;SDS011;7108;42.684;23.350;2023-01-15T14:43:30;267.42;;;77.32;;
14066;SDS011;7108;42.684;23.350;2023-01-15T14:46:07;249.07;;;75.38;;
14066;SDS011;7108;42.684;23.350;2023-01-15T14:48:45;279.30;;;79.25;;
14066;SDS011;7108;42.684;23.350;2023-01-15T14:51:12;278.50;;;79.43;;
14066;SDS011;7108;42.684;23.350;2023-01-15T14:53:42;329.35;;;84.18;;
14066;SDS011;7108;42.684;23.350;2023-01-15T14:56:23;273.45;;;80.60;;
14066;SDS011;7108;42.684;23.350;2023-01-15T15:07:02;247.07;;;78.35;;
14066;SDS011;7108;42.684;23.350;2023-01-15T15:09:39;235.60;;;76.40;;
14066;SDS011;7108;42.684;23.350;2023-01-15T15:12:27;297.98;;;82.05;;
14066;SDS011;7108;42.684;23.350;2023-01-15T15:20:52;249.65;;;77.03;;
14066;SDS011;7108;42.684;23.350;2023-01-15T15:25:59;243.77;;;78.55;;
14066;SDS011;7108;42.684;23.350;2023-01-15T15:28:26;254.70;;;81.53;;
14066;SDS011;7108;42.684;23.350;2023-01-15T15:30:53;238.02;;;82.90;;
14066;SDS011;7108;42.684;23.350;2023-01-15T15:33:24;245.77;;;79.68;;
14066;SDS011;7108;42.684;23.350;2023-01-15T15:35:58;261.50;;;80.60;;
14066;SDS011;7108;42.684;23.350;2023-01-15T15:38:25;267.25;;;78.20;;
14066;SDS011;7108;42.684;23.350;2023-01-15T15:40:55;262.40;;;78.53;;
14066;SDS011;7108;42.684;23.350;2023-01-15T15:46:34;280.33;;;83.05;;
14066;SDS011;7108;42.684;23.350;2023-01-15T15:49:19;261.48;;;80.15;;
14066;SDS011;7108;42.684;23.350;2023-01-15T16:02:18;234.60;;;81.65;;
14066;SDS011;7108;42.684;23.350;2023-01-15T16:05:18;250.02;;;80.57;;
14066;SDS011;7108;42.684;23.350;2023-01-15T16:07:46;268.95;;;81.15;;
14066;SDS011;7108;42.684;23.350;2023-01-15T16:12:40;278.30;;;83.67;;
14066;SDS011;7108;42.684;23.350;2023-01-15T16:15:15;271.58;;;81.70;;
14066;SDS011;7108;42.684;23.350;2023-01-15T16:17:44;320.88;;;91.32;;
14066;SDS011;7108;42.684;23.350;2023-01-15T16:20:11;263.60;;;84.00;;
14066;SDS011;7108;42.684;23.350;2023-01-15T16:22:45;283.08;;;82.43;;
14066;SDS011;7108;42.684;23.350;2023-01-15T16:25:21;298.85;;;87.97;;
14066;SDS011;7108;42.684;23.350;2023-01-15T16:27:59;250.32;;;79.60;;
14066;SDS011;7108;42.684;23.350;2023-01-15T16:30:29;275.67;;;82.30;;
14066;SDS011;7108;42.684;23.350;2023-01-15T16:33:02;242.60;;;79.85;;
14066;SDS011;7108;42.684;23.350;2023-01-15T16:35:32;270.58;;;80.45;;
14066;SDS011;7108;42.684;23.350;2023-01-15T16:38:02;285.08;;;85.38;;
14066;SDS011;7108;42.684;23.350;2023-01-15T16:40:38;252.90;;;82.25;;
14066;SDS011;7108;42.684;23.350;2023-01-15T16:43:08;260.17;;;82.80;;
14066;SDS011;7108;42.684;23.350;2023-01-15T16:45:55;333.02;;;89.82;;
14066;SDS011;7108;42.684;23.350;2023-01-15T16:48:32;232.40;;;80.95;;
14066;SDS011;7108;42.684;23.350;2023-01-15T16:54:00;240.27;;;81.25;;
14066;SDS011;7108;42.684;23.350;2023-01-15T16:58:59;260.17;;;81.93;;
14066;SDS011;7108;42.684;23.350;2023-01-15T17:01:35;253.53;;;82.47;;
14066;SDS011;7108;42.684;23.350;2023-01-15T17:07:18;266.00;;;82.80;;
14066;SDS011;7108;42.684;23.350;2023-01-15T17:09:48;288.45;;;80.85;;
14066;SDS011;7108;42.684;23.350;2023-01-15T17:12:26;239.70;;;79.90;;
14066;SDS011;7108;42.684;23.350;2023-01-15T17:17:39;288.05;;;84.68;;
14066;SDS011;7108;42.684;23.350;2023-01-15T17:20:07;269.95;;;79.40;;
14066;SDS011;7108;42.684;23.350;2023-01-15T17:22:34;255.30;;;80.85;;
14066;SDS011;7108;42.684;23.350;2023-01-15T17:25:01;248.27;;;80.00;;
14066;SDS011;7108;42.684;23.350;2023-01-15T17:27:27;276.80;;;82.50;;
14066;SDS011;7108;42.684;23.350;2023-01-15T17:29:54;245.77;;;78.40;;
14066;SDS011;7108;42.684;23.350;2023-01-15T17:32:25;224.27;;;78.17;;